Time;durP1;ratioP1;P1;durP2;ratioP2;P2;SDS_P1;SDS_P2;PMS_P1;PMS_P2;Temp;Humidity;BMP_temperature;BMP_pressure;BME280_temperature;BME280_humidity;BME280_pressure;Samples;Min_cycle;Max_cycle;Signal;HPM_P1;HPM_P2
2022/06/30 00:01:36;;;;;;;10.48;9.30;;;;;;;21.10;68.52;100822.84;3568998;40;20346;-63
2022/06/30 00:04:03;;;;;;;11.98;9.02;;;;;;;21.12;68.43;100824.53;3567145;40;20065;-63
2022/06/30 00:06:30;;;;;;;14.27;8.93;;;;;;;21.07;68.62;100828.63;3570068;40;20147;-63
2022/06/30 00:08:56;;;;;;;11.45;8.80;;;;;;;21.06;68.58;100828.81;3570554;40;20113;-63
2022/06/30 00:11:22;;;;;;;9.75;8.35;;;;;;;21.06;68.20;100824.19;3570493;40;20509;-63
2022/06/30 00:13:49;;;;;;;10.82;8.80;;;;;;;21.03;68.64;100819.03;3570547;40;20071;-62
2022/06/30 00:16:15;;;;;;;9.75;7.82;;;;;;;21.01;68.69;100817.50;3572541;40;20067;-63
2022/06/30 00:18:41;;;;;;;9.80;8.80;;;;;;;20.98;69.47;100813.19;3570659;40;20075;-63
2022/06/30 00:21:09;;;;;;;11.50;8.45;;;;;;;20.74;69.61;100777.53;3570392;40;20122;-63
2022/06/30 00:23:35;;;;;;;12.10;9.15;;;;;;;20.88;70.26;100811.63;3571150;40;20060;-63
2022/06/30 00:26:01;;;;;;;14.05;9.20;;;;;;;20.85;69.54;100801.84;3570288;40;20056;-64
2022/06/30 00:28:26;;;;;;;10.18;8.95;;;;;;;20.80;69.93;100801.47;3570244;40;20052;-64
2022/06/30 00:30:52;;;;;;;9.10;8.25;;;;;;;20.76;70.46;100806.41;3570689;40;20070;-64
2022/06/30 00:33:19;;;;;;;11.60;8.38;;;;;;;20.53;70.22;100765.13;3569190;40;20065;-63
2022/06/30 00:35:46;;;;;;;11.90;8.77;;;;;;;20.68;70.48;100798.19;3570483;40;20616;-65
2022/06/30 00:38:12;;;;;;;10.93;8.57;;;;;;;20.59;70.67;100797.28;3571567;40;20112;-65
2022/06/30 00:40:45;;;;;;;9.07;8.18;;;;;;;20.43;70.12;100769.81;3567804;40;20227;-62
2022/06/30 00:43:13;;;;;;;10.75;8.43;;;;;;;20.57;70.86;100799.28;3570711;40;20085;-63
2022/06/30 00:45:43;;;;;;;8.82;7.95;;;;;;;20.56;70.77;100796.75;3569782;40;20064;-63
2022/06/30 00:48:11;;;;;;;11.65;8.43;;;;;;;20.53;71.10;100808.84;3568637;40;20049;-64
2022/06/30 00:50:38;;;;;;;10.52;8.07;;;;;;;20.50;71.29;100800.94;3569653;40;20658;-64
2022/06/30 00:53:05;;;;;;;9.30;8.43;;;;;;;20.46;70.78;100807.72;3568310;40;20060;-63
2022/06/30 00:55:33;;;;;;;9.70;8.38;;;;;;;20.47;71.04;100803.97;3569393;40;20057;-64
2022/06/30 00:58:03;;;;;;;10.95;8.27;;;;;;;20.45;71.13;100808.72;3569080;40;20316;-64
2022/06/30 01:00:33;;;;;;;10.32;8.38;;;;;;;20.44;70.91;100808.91;3567662;40;20049;-64
2022/06/30 01:03:00;;;;;;;11.18;8.05;;;;;;;20.39;71.25;100807.50;3569517;40;20065;-64
2022/06/30 01:05:27;;;;;;;8.70;7.90;;;;;;;20.36;70.74;100799.66;3569375;40;20079;-64
2022/06/30 01:07:58;;;;;;;9.52;8.63;;;;;;;20.37;70.71;100797.75;3568885;40;20074;-63
2022/06/30 01:13:08;;;;;;;13.48;8.20;;;;;;;20.27;70.66;100797.88;3568488;40;20059;-64
2022/06/30 01:15:33;;;;;;;9.38;8.48;;;;;;;20.22;70.82;100807.53;3568593;40;20048;-64
2022/06/30 01:17:59;;;;;;;9.93;7.68;;;;;;;20.21;70.34;100808.56;3568564;40;20055;-64
2022/06/30 01:20:33;;;;;;;9.35;7.70;;;;;;;19.96;70.84;100778.31;3567869;40;20139;-63
2022/06/30 01:23:03;;;;;;;15.68;8.57;;;;;;;20.11;71.41;100806.78;3568594;40;20044;-64
2022/06/30 01:25:30;;;;;;;9.52;8.52;;;;;;;19.84;71.92;100763.19;3569561;40;20060;-64
2022/06/30 01:27:56;;;;;;;9.13;8.23;;;;;;;20.04;72.19;100808.38;3568304;40;20059;-62
2022/06/30 01:30:23;;;;;;;10.25;8.80;;;;;;;19.96;73.13;100805.59;3569166;40;20672;-63
2022/06/30 01:32:50;;;;;;;11.25;8.85;;;;;;;19.87;73.03;100807.38;3569191;40;20938;-63
2022/06/30 01:35:16;;;;;;;9.65;8.27;;;;;;;19.50;72.63;100742.03;3568817;40;20060;-63
2022/06/30 01:37:51;;;;;;;12.00;8.40;;;;;;;19.88;73.02;100816.44;3568637;40;20376;-63
2022/06/30 01:40:19;;;;;;;11.57;8.55;;;;;;;19.82;72.94;100811.59;3570763;40;20064;-63
2022/06/30 01:42:45;;;;;;;11.38;8.82;;;;;;;19.58;74.14;100783.03;3570040;40;20416;-63
2022/06/30 01:45:11;;;;;;;9.75;8.63;;;;;;;19.02;74.56;100708.66;3569280;40;20056;-63
2022/06/30 01:47:37;;;;;;;12.02;9.45;;;;;;;19.70;73.97;100819.16;3568684;40;20053;-62
2022/06/30 01:50:08;;;;;;;10.02;9.02;;;;;;;19.68;74.70;100815.72;3568207;40;20069;-62
2022/06/30 01:52:34;;;;;;;9.70;8.70;;;;;;;19.65;73.76;100807.84;3568137;40;20069;-62
2022/06/30 01:55:00;;;;;;;10.90;8.82;;;;;;;19.48;74.22;100793.16;3568663;40;20088;-62
2022/06/30 01:57:26;;;;;;;12.73;8.50;;;;;;;19.57;74.33;100807.72;3568474;40;20073;-62
2022/06/30 01:59:51;;;;;;;11.50;8.43;;;;;;;19.52;74.05;100810.91;3569934;40;20103;-62
2022/06/30 02:02:17;;;;;;;10.25;8.45;;;;;;;19.47;74.71;100810.50;3566884;40;20404;-62
2022/06/30 02:04:50;;;;;;;10.98;8.40;;;;;;;19.43;74.67;100809.97;3568247;40;20069;-62
2022/06/30 02:07:17;;;;;;;;;;;;;;;19.39;74.75;100813.16;3569540;40;20068;-62
2022/06/30 02:09:43;;;;;;;8.98;8.07;;;;;;;19.33;74.54;100819.22;3570011;40;19932;-63
2022/06/30 02:14:55;;;;;;;10.32;8.15;;;;;;;19.35;74.75;100834.41;3569573;40;20093;-62
2022/06/30 02:17:21;;;;;;;9.85;8.20;;;;;;;19.35;73.86;100828.09;3569696;40;20053;-62
2022/06/30 02:19:48;;;;;;;10.77;8.27;;;;;;;19.34;73.58;100824.50;3569553;40;20088;-62
2022/06/30 02:22:14;;;;;;;11.65;8.38;;;;;;;19.28;73.71;100826.97;3569904;40;20122;-61
2022/06/30 02:24:39;;;;;;;11.32;8.65;;;;;;;19.15;73.58;100817.28;3571332;40;20392;-62
2022/06/30 02:27:05;;;;;;;12.38;8.82;;;;;;;19.17;73.04;100828.91;3569491;40;20285;-62
2022/06/30 02:29:31;;;;;;;12.55;9.00;;;;;;;19.12;73.28;100836.66;3560990;40;20056;-62
2022/06/30 02:31:56;;;;;;;9.73;8.55;;;;;;;19.09;73.52;100850.56;3569069;40;20056;-62
2022/06/30 02:34:22;;;;;;;11.35;8.50;;;;;;;18.89;73.76;100810.81;3568383;40;20057;-62
2022/06/30 02:36:47;;;;;;;11.82;8.07;;;;;;;19.08;73.17;100824.34;3569490;40;20065;-62
2022/06/30 02:39:13;;;;;;;9.60;8.63;;;;;;;19.14;73.11;100829.19;3567706;40;20076;-62
2022/06/30 02:41:39;;;;;;;10.38;8.55;;;;;;;19.16;73.16;100829.91;3571304;40;20048;-63
2022/06/30 02:44:04;;;;;;;9.18;8.13;;;;;;;19.19;72.71;100829.63;3571516;40;20051;-61
2022/06/30 02:46:30;;;;;;;9.93;8.57;;;;;;;19.20;72.67;100823.16;3558458;40;20089;-62
2022/06/30 02:48:56;;;;;;;13.15;9.20;;;;;;;19.15;72.89;100814.56;3570694;40;20064;-61
2022/06/30 02:51:22;;;;;;;10.95;8.85;;;;;;;19.15;72.60;100820.00;3567615;40;20134;-62
2022/06/30 02:53:47;;;;;;;10.77;8.98;;;;;;;19.15;72.81;100825.44;3569548;40;20364;-62
2022/06/30 02:56:13;;;;;;;10.85;9.85;;;;;;;19.10;73.11;100825.06;3567461;40;20130;-62
2022/06/30 02:58:39;;;;;;;10.48;8.95;;;;;;;19.08;72.44;100827.06;3570337;40;20071;-62
2022/06/30 03:01:05;;;;;;;11.73;9.10;;;;;;;19.05;72.83;100824.66;3569195;40;20070;-62
2022/06/30 03:03:31;;;;;;;10.20;9.13;;;;;;;19.03;72.12;100821.22;3572405;40;20057;-62
2022/06/30 03:05:56;;;;;;;12.02;9.10;;;;;;;19.01;72.44;100823.25;3569934;40;20284;-63
2022/06/30 03:08:22;;;;;;;12.75;8.90;;;;;;;18.94;73.65;100827.56;3564731;40;20072;-62
2022/06/30 03:10:48;;;;;;;11.40;9.43;;;;;;;18.92;73.40;100822.25;3565769;40;20075;-62
2022/06/30 03:13:13;;;;;;;12.13;9.65;;;;;;;18.90;73.62;100817.97;3565627;40;20057;-62
2022/06/30 03:15:39;;;;;;;11.73;9.27;;;;;;;18.72;72.91;100794.25;3571581;40;20060;-62
2022/06/30 03:18:05;;;;;;;11.32;9.30;;;;;;;18.87;72.81;100818.25;3569341;40;20056;-62
2022/06/30 03:20:30;;;;;;;11.15;9.38;;;;;;;18.86;72.79;100824.72;3566358;40;20076;-61
2022/06/30 03:22:56;;;;;;;10.65;8.88;;;;;;;18.89;73.35;100814.38;3572545;40;20092;-61
2022/06/30 03:25:22;;;;;;;12.00;9.50;;;;;;;18.86;73.51;100819.28;3553778;40;20065;-62
2022/06/30 03:27:47;;;;;;;10.10;9.10;;;;;;;18.46;74.07;100763.22;3567878;40;20435;-61
2022/06/30 03:30:13;;;;;;;12.57;10.05;;;;;;;18.71;75.73;100819.75;3571140;40;20075;-62
2022/06/30 03:32:39;;;;;;;11.02;9.50;;;;;;;18.71;75.45;100813.41;3570441;40;20057;-62
2022/06/30 03:35:05;;;;;;;12.43;9.85;;;;;;;18.72;75.32;100816.03;3568325;40;20053;-62
2022/06/30 03:37:31;;;;;;;10.60;9.45;;;;;;;18.64;74.87;100796.81;3567408;40;20057;-61
2022/06/30 03:39:57;;;;;;;10.32;9.23;;;;;;;18.73;74.17;100817.72;3566490;40;20076;-62
2022/06/30 03:42:24;;;;;;;10.38;8.27;;;;;;;18.71;75.11;100813.41;3572257;40;20055;-62
2022/06/30 03:44:50;;;;;;;10.63;8.77;;;;;;;18.48;74.53;100775.63;3564785;40;20061;-62
2022/06/30 03:47:16;;;;;;;10.38;9.30;;;;;;;18.69;73.98;100805.41;3568171;40;20312;-62
2022/06/30 03:49:42;;;;;;;11.30;9.60;;;;;;;18.62;74.76;100808.88;3568349;40;20284;-62
2022/06/30 03:52:08;;;;;;;11.55;9.40;;;;;;;18.56;75.09;100810.31;3567561;40;20127;-62
2022/06/30 03:54:34;;;;;;;11.90;9.48;;;;;;;18.50;74.50;100816.34;3571810;40;20071;-63
2022/06/30 03:57:00;;;;;;;13.23;10.23;;;;;;;18.47;75.19;100800.31;3572536;40;20069;-62
2022/06/30 03:59:25;;;;;;;13.75;10.27;;;;;;;18.43;75.19;100802.47;3564952;40;20070;-62
2022/06/30 04:01:51;;;;;;;12.70;9.48;;;;;;;18.39;76.14;100802.88;3580145;40;20283;-62
2022/06/30 04:04:16;;;;;;;14.82;9.70;;;;;;;18.37;76.17;100802.19;3571211;40;20061;-61
2022/06/30 04:06:42;;;;;;;12.35;9.15;;;;;;;18.40;76.31;100801.91;3574391;40;20521;-62
2022/06/30 04:09:08;;;;;;;10.23;9.23;;;;;;;18.20;76.12;100758.38;3575403;40;20076;-62
2022/06/30 04:11:34;;;;;;;9.77;8.50;;;;;;;18.50;75.16;100794.56;3576607;40;20077;-62
2022/06/30 04:14:00;;;;;;;22.40;8.95;;;;;;;18.55;75.75;100797.69;3565447;40;20049;-62
2022/06/30 04:16:26;;;;;;;9.38;8.35;;;;;;;18.57;75.11;100801.13;3579324;40;20055;-62
2022/06/30 04:18:56;;;;;;;12.32;9.05;;;;;;;18.59;73.83;100799.13;3574762;40;20458;-63
2022/06/30 04:21:21;;;;;;;11.73;8.48;;;;;;;18.57;74.49;100812.03;3574614;40;20545;-63
2022/06/30 04:23:47;;;;;;;10.35;7.97;;;;;;;18.58;75.03;100811.00;3575010;40;20062;-64
2022/06/30 04:26:13;;;;;;;9.40;7.70;;;;;;;18.63;74.42;100816.88;3573167;40;20055;-64
2022/06/30 04:28:39;;;;;;;11.45;8.48;;;;;;;18.64;73.30;100821.31;3578024;40;20327;-64
2022/06/30 04:33:49;;;;;;;9.30;8.35;;;;;;;18.74;73.44;100824.91;3573737;40;20059;-64
2022/06/30 04:36:15;;;;;;;10.35;8.18;;;;;;;18.79;73.39;100849.81;3572512;40;20049;-64
2022/06/30 04:38:40;;;;;;;10.05;8.20;;;;;;;18.78;73.38;100853.56;3571493;40;20064;-63
2022/06/30 04:41:24;;;;;;;10.98;8.82;;;;;;;18.82;73.44;100828.75;3572005;40;20056;-64
2022/06/30 04:43:55;;;;;;;11.60;9.93;;;;;;;18.77;73.58;100854.59;3572571;40;20118;-64
2022/06/30 04:46:22;;;;;;;11.38;10.18;;;;;;;18.78;72.91;100864.47;3572319;40;20088;-65
2022/06/30 04:48:49;;;;;;;14.00;11.38;;;;;;;18.75;73.03;100851.13;3577058;40;20088;-66
2022/06/30 04:51:15;;;;;;;17.42;11.45;;;;;;;18.53;73.55;100854.16;3570118;40;20092;-65
2022/06/30 04:53:41;;;;;;;14.75;13.25;;;;;;;18.66;73.77;100870.19;3567850;40;20101;-65
2022/06/30 04:56:09;;;;;;;16.95;14.20;;;;;;;18.62;73.87;100866.06;3567082;40;20395;-65
2022/06/30 04:58:35;;;;;;;17.40;14.82;;;;;;;18.48;74.93;100868.19;3566505;40;20064;-65
2022/06/30 05:01:02;;;;;;;17.02;15.13;;;;;;;18.56;74.53;100867.47;3570854;40;20049;-65
2022/06/30 05:03:29;;;;;;;17.13;15.32;;;;;;;18.56;74.92;100871.06;3570307;40;20044;-64
2022/06/30 05:05:55;;;;;;;18.10;16.17;;;;;;;18.54;75.14;100875.78;3570291;40;20057;-65
2022/06/30 05:08:21;;;;;;;17.55;15.60;;;;;;;18.55;75.62;100873.91;3566776;40;20050;-65
2022/06/30 05:10:47;;;;;;;18.90;16.25;;;;;;;18.57;75.29;100866.47;3573265;40;20105;-64
2022/06/30 05:13:13;;;;;;;19.38;17.35;;;;;;;18.57;74.70;100874.63;3569535;40;20380;-65
2022/06/30 05:15:39;;;;;;;19.23;16.95;;;;;;;18.58;74.36;100862.72;3569725;40;20172;-65
2022/06/30 05:18:04;;;;;;;22.50;18.33;;;;;;;18.55;75.06;100857.56;3574028;40;20053;-65
2022/06/30 05:20:31;;;;;;;20.70;18.40;;;;;;;18.53;75.40;100865.06;3564944;40;20398;-65
2022/06/30 05:22:57;;;;;;;20.88;18.70;;;;;;;18.58;75.52;100861.88;3555601;40;20085;-65
2022/06/30 05:28:07;;;;;;;20.85;18.50;;;;;;;18.65;75.43;100869.34;3570731;40;20091;-65
2022/06/30 05:30:33;;;;;;;21.50;19.17;;;;;;;18.70;74.24;100861.56;3560638;40;20073;-66
2022/06/30 05:32:58;;;;;;;20.88;18.52;;;;;;;18.42;74.55;100808.88;3566492;40;20049;-65
2022/06/30 05:35:24;;;;;;;20.73;18.60;;;;;;;18.69;74.78;100868.03;3566018;40;20088;-64
2022/06/30 05:37:50;;;;;;;18.08;16.17;;;;;;;18.69;74.33;100864.44;3572149;40;20053;-65
2022/06/30 05:40:16;;;;;;;18.30;16.15;;;;;;;18.48;72.72;100834.66;3568315;40;20064;-64
2022/06/30 05:42:41;;;;;;;17.23;15.10;;;;;;;18.73;73.40;100860.44;3570047;40;20090;-66
2022/06/30 05:45:08;;;;;;;16.38;14.68;;;;;;;18.77;72.27;100873.66;3570069;40;20130;-65
2022/06/30 05:47:34;;;;;;;16.55;14.80;;;;;;;18.76;72.57;100877.34;3567916;40;20146;-65
2022/06/30 05:49:59;;;;;;;17.30;14.07;;;;;;;18.78;72.09;100879.94;3568805;40;20045;-64
2022/06/30 05:52:25;;;;;;;16.27;14.48;;;;;;;18.83;72.42;100882.22;3568733;40;20533;-64
2022/06/30 05:54:51;;;;;;;16.92;13.57;;;;;;;18.88;72.24;100871.75;3569064;40;20048;-64
2022/06/30 05:57:16;;;;;;;14.77;12.07;;;;;;;18.95;71.89;100875.59;3565643;40;20053;-65
2022/06/30 05:59:42;;;;;;;14.13;11.95;;;;;;;19.01;72.41;100864.09;3567634;40;20605;-65
2022/06/30 06:02:09;;;;;;;14.35;12.10;;;;;;;19.07;71.57;100858.06;3570705;40;20044;-64
2022/06/30 06:04:35;;;;;;;13.55;11.57;;;;;;;19.17;71.06;100847.97;3569587;40;20072;-65
2022/06/30 06:07:02;;;;;;;19.73;11.30;;;;;;;19.34;70.37;100868.13;3570546;40;20060;-65
2022/06/30 06:09:29;;;;;;;16.52;11.20;;;;;;;19.41;71.22;100871.09;3568533;40;20051;-63
2022/06/30 06:11:55;;;;;;;14.25;10.95;;;;;;;19.48;70.22;100872.22;3570908;40;20127;-63
2022/06/30 06:14:21;;;;;;;13.95;10.48;;;;;;;19.59;69.79;100879.34;3566342;40;20096;-64
2022/06/30 06:16:47;;;;;;;12.38;9.80;;;;;;;19.72;70.19;100885.31;3571668;40;20085;-65
2022/06/30 06:19:13;;;;;;;12.95;9.02;;;;;;;19.54;69.82;100843.50;3572755;40;20324;-64
2022/06/30 06:21:40;;;;;;;12.93;9.57;;;;;;;19.83;69.73;100881.53;3569482;40;20065;-64
2022/06/30 06:24:06;;;;;;;10.40;9.30;;;;;;;19.89;69.87;100875.47;3571858;40;20084;-64
2022/06/30 06:26:31;;;;;;;11.52;8.88;;;;;;;19.99;69.31;100884.44;3566358;40;20300;-64
2022/06/30 06:29:06;;;;;;;12.43;9.55;;;;;;;20.09;69.63;100882.47;3568884;40;20056;-64
2022/06/30 06:31:40;;;;;;;12.45;9.15;;;;;;;20.24;68.51;100901.91;3568875;40;20049;-64
2022/06/30 06:34:07;;;;;;;13.27;9.40;;;;;;;20.33;68.40;100894.63;3571278;40;20049;-64
2022/06/30 06:36:34;;;;;;;12.70;8.40;;;;;;;20.49;67.40;100894.81;3568915;40;20721;-64
2022/06/30 06:39:00;;;;;;;13.80;8.52;;;;;;;20.61;66.84;100907.25;3572271;40;20092;-64
2022/06/30 06:41:26;;;;;;;14.25;8.75;;;;;;;20.73;66.56;100902.34;3567829;40;20146;-64
2022/06/30 06:43:52;;;;;;;11.65;8.30;;;;;;;20.86;66.34;100896.47;3571059;40;20663;-65
2022/06/30 06:46:18;;;;;;;14.02;8.80;;;;;;;20.99;66.66;100901.50;3569847;40;20060;-65
2022/06/30 06:48:44;;;;;;;13.85;7.85;;;;;;;21.10;66.20;100904.00;3568977;40;20064;-65
2022/06/30 06:51:10;;;;;;;15.13;8.85;;;;;;;21.21;66.04;100900.09;3569045;40;20306;-66
2022/06/30 06:53:37;;;;;;;12.85;8.40;;;;;;;21.32;65.44;100903.44;3568822;40;20065;-65
2022/06/30 06:56:04;;;;;;;13.73;8.00;;;;;;;21.46;64.79;100910.19;3557747;40;20092;-65
2022/06/30 06:58:30;;;;;;;13.88;7.97;;;;;;;21.54;63.94;100903.91;3568034;40;20108;-65
2022/06/30 07:00:56;;;;;;;13.63;7.85;;;;;;;21.66;63.87;100897.13;3571685;40;20368;-65
2022/06/30 07:03:22;;;;;;;14.35;8.15;;;;;;;21.79;63.45;100915.81;3568473;40;20063;-66
2022/06/30 07:05:48;;;;;;;12.60;7.47;;;;;;;21.95;62.75;100925.97;3569662;40;22453;-65
2022/06/30 07:08:13;;;;;;;11.13;7.40;;;;;;;22.03;62.55;100926.81;3565403;40;20100;-65
2022/06/30 07:10:39;;;;;;;10.68;7.70;;;;;;;22.06;62.39;100935.72;3571133;40;20060;-65
2022/06/30 07:13:05;;;;;;;10.10;6.75;;;;;;;22.17;61.91;100941.78;3569872;40;20122;-65
2022/06/30 07:15:31;;;;;;;11.85;7.00;;;;;;;22.23;61.91;100937.50;3570759;40;20088;-64
2022/06/30 07:17:56;;;;;;;10.10;6.93;;;;;;;22.41;61.33;100957.38;3571326;40;20055;-64
2022/06/30 07:20:22;;;;;;;10.10;7.18;;;;;;;22.57;61.74;100956.56;3568441;40;20065;-65
2022/06/30 07:22:48;;;;;;;10.77;5.85;;;;;;;22.60;60.50;100960.84;3569798;40;20090;-65
2022/06/30 07:25:14;;;;;;;8.90;5.47;;;;;;;22.74;60.25;100953.81;3563866;40;20064;-64
2022/06/30 07:27:39;;;;;;;9.95;5.65;;;;;;;22.84;59.87;100965.50;3569569;40;20065;-64
2022/06/30 07:30:06;;;;;;;11.90;6.20;;;;;;;22.90;58.75;100954.69;3571175;40;20056;-64
2022/06/30 07:32:32;;;;;;;10.32;6.10;;;;;;;22.96;59.06;100957.78;3569268;40;20466;-65
2022/06/30 07:34:58;;;;;;;9.07;5.22;;;;;;;23.04;59.56;100946.81;3568660;40;20045;-65
2022/06/30 07:37:23;;;;;;;9.80;5.47;;;;;;;23.08;59.11;100939.94;3571045;40;20053;-65
2022/06/30 07:39:49;;;;;;;12.05;4.80;;;;;;;23.26;59.07;100943.34;3575860;40;20294;-64
2022/06/30 07:42:15;;;;;;;9.63;5.18;;;;;;;23.36;58.32;100952.25;3568244;40;20059;-65
2022/06/30 07:44:42;;;;;;;10.30;5.13;;;;;;;23.47;57.83;100945.53;3571729;40;20578;-65
2022/06/30 07:47:08;;;;;;;6.95;4.85;;;;;;;23.57;55.73;100939.84;3572996;40;20092;-65
2022/06/30 07:49:33;;;;;;;9.10;4.40;;;;;;;23.63;55.89;100948.22;3573877;40;20057;-65
2022/06/30 07:51:59;;;;;;;10.57;4.80;;;;;;;23.74;55.46;100952.50;3573545;40;20055;-65
2022/06/30 07:54:25;;;;;;;9.95;4.65;;;;;;;23.79;55.70;100933.59;3570201;40;20052;-65
2022/06/30 07:56:50;;;;;;;9.23;4.60;;;;;;;24.01;54.54;100942.09;3568744;40;20056;-65
2022/06/30 07:59:16;;;;;;;9.15;4.00;;;;;;;24.18;54.70;100949.19;3575582;40;20057;-66
2022/06/30 08:01:42;;;;;;;7.15;3.83;;;;;;;24.36;54.04;100937.03;3566316;40;20104;-65
2022/06/30 08:04:08;;;;;;;11.35;4.10;;;;;;;24.48;54.08;100939.22;3569587;40;20404;-64
2022/06/30 08:06:33;;;;;;;7.72;3.83;;;;;;;24.64;53.08;100935.47;3572012;40;20133;-64
2022/06/30 08:08:59;;;;;;;7.53;3.42;;;;;;;24.83;51.33;100933.28;3570122;40;20056;-64
2022/06/30 08:11:26;;;;;;;9.00;4.15;;;;;;;25.01;50.54;100939.28;3572267;40;20057;-64
2022/06/30 08:13:51;;;;;;;8.65;3.97;;;;;;;25.12;49.95;100938.88;3575674;40;20656;-65
2022/06/30 08:16:17;;;;;;;7.45;4.28;;;;;;;25.24;49.35;100947.50;3573392;40;20049;-65
2022/06/30 08:18:43;;;;;;;7.10;3.70;;;;;;;25.32;49.50;100921.81;3576450;40;20072;-66
2022/06/30 08:21:09;;;;;;;10.10;4.03;;;;;;;25.59;49.03;100937.66;3574205;40;20061;-64
2022/06/30 08:23:36;;;;;;;6.82;3.83;;;;;;;25.73;50.26;100944.22;3571724;40;20067;-64
2022/06/30 08:26:03;;;;;;;6.22;3.88;;;;;;;25.92;49.02;100945.56;3570239;40;20715;-64
2022/06/30 08:28:31;;;;;;;7.80;4.10;;;;;;;25.97;47.44;100945.81;3569268;40;20287;-64
2022/06/30 08:30:57;;;;;;;6.18;3.42;;;;;;;26.10;47.60;100948.75;3570564;40;20048;-65
2022/06/30 08:33:23;;;;;;;8.02;3.65;;;;;;;26.08;47.75;100942.56;3571995;40;20064;-65
2022/06/30 08:35:48;;;;;;;8.15;3.42;;;;;;;26.16;47.39;100950.72;3570947;40;20068;-65
2022/06/30 08:38:14;;;;;;;8.27;4.00;;;;;;;26.23;47.27;100947.16;3570855;40;20059;-64
2022/06/30 08:43:29;;;;;;;6.47;3.83;;;;;;;26.37;47.63;100957.31;3570243;40;20056;-64
2022/06/30 08:45:57;;;;;;;8.85;4.10;;;;;;;26.36;48.00;100961.97;3570495;40;20323;-65
2022/06/30 08:48:22;;;;;;;8.20;3.78;;;;;;;26.42;47.05;100954.84;3570207;40;20052;-65
2022/06/30 08:50:58;;;;;;;7.32;3.80;;;;;;;26.48;46.68;100942.13;3569381;40;20071;-64
2022/06/30 08:53:31;;;;;;;8.23;3.92;;;;;;;26.66;46.49;100950.00;3569940;40;20060;-64
2022/06/30 08:55:56;;;;;;;;;;;;;;;26.74;46.54;100952.63;3570703;40;20056;-63
2022/06/30 08:58:24;;;;;;;6.07;3.63;;;;;;;26.67;44.80;100926.88;3570005;40;19951;-65
2022/06/30 09:00:52;;;;;;;5.72;3.72;;;;;;;26.94;45.77;100959.16;3568894;40;20118;-65
2022/06/30 09:03:18;;;;;;;6.13;3.42;;;;;;;27.01;45.34;100964.75;3570009;40;20086;-65
2022/06/30 09:05:47;;;;;;;5.65;3.17;;;;;;;27.15;46.40;100957.44;3568949;40;20376;-65
2022/06/30 09:08:14;;;;;;;4.07;3.05;;;;;;;27.21;43.80;100960.28;3570775;40;20579;-64
2022/06/30 09:10:51;;;;;;;7.80;3.65;;;;;;;27.31;44.20;100962.69;3569898;40;20083;-65
2022/06/30 09:13:18;;;;;;;8.02;3.38;;;;;;;27.44;42.32;100962.78;3568776;40;20137;-65
2022/06/30 09:15:45;;;;;;;7.35;3.00;;;;;;;27.53;43.97;100964.31;3570024;40;20112;-65
2022/06/30 09:18:29;;;;;;;8.93;4.20;;;;;;;27.43;42.65;100961.03;3564956;40;20064;-65
2022/06/30 09:20:56;;;;;;;6.82;2.92;;;;;;;27.21;43.94;100954.75;3568816;40;20059;-65
2022/06/30 09:23:30;;;;;;;6.13;3.15;;;;;;;27.30;44.01;100969.25;3568428;40;20104;-63
2022/06/30 09:26:02;;;;;;;7.00;3.28;;;;;;;27.49;45.36;100963.00;3570112;40;20359;-63
2022/06/30 09:28:54;;;;;;;9.43;3.20;;;;;;;27.72;43.97;100962.72;3569489;40;20052;-64
2022/06/30 09:31:39;;;;;;;5.55;3.30;;;;;;;27.61;44.05;100905.28;3569324;40;20045;-63
2022/06/30 09:34:19;;;;;;;6.57;3.20;;;;;;;28.16;44.03;100968.88;3559379;40;20150;-64
2022/06/30 09:36:50;;;;;;;7.22;3.17;;;;;;;28.36;43.59;100964.28;3569085;40;20049;-65
2022/06/30 09:39:19;;;;;;;4.82;2.80;;;;;;;28.56;41.03;100963.50;3569571;40;20048;-66
2022/06/30 09:41:47;;;;;;;9.13;3.03;;;;;;;28.43;40.75;100959.66;3571107;40;20047;-66
2022/06/30 09:44:16;;;;;;;7.15;2.92;;;;;;;28.19;40.59;100968.47;3571331;40;20061;-66
2022/06/30 09:47:12;;;;;;;4.82;2.50;;;;;;;28.08;41.70;100960.78;3569625;40;20423;-64
2022/06/30 09:49:41;;;;;;;6.68;2.85;;;;;;;27.96;40.92;100964.13;3569139;40;20049;-65
2022/06/30 09:52:23;;;;;;;4.82;2.60;;;;;;;27.71;41.85;100943.59;3570913;40;20077;-64
2022/06/30 09:55:04;;;;;;;6.00;2.53;;;;;;;28.00;41.46;100964.56;3568791;40;20063;-64
2022/06/30 09:57:37;;;;;;;20.58;7.32;;;;;;;28.20;43.23;100964.66;3568478;40;20096;-63
2022/06/30 10:00:11;;;;;;;51.15;20.25;;;;;;;28.31;44.27;100960.44;3569861;40;20440;-64
2022/06/30 10:02:45;;;;;;;18.20;7.30;;;;;;;28.26;43.79;100960.19;3568296;40;20153;-64
2022/06/30 10:05:14;;;;;;;34.72;14.25;;;;;;;28.05;43.65;100928.88;3571423;40;20060;-65
2022/06/30 10:07:41;;;;;;;25.95;9.75;;;;;;;28.46;44.43;100964.75;3571982;40;20123;-65
2022/06/30 10:10:12;;;;;;;107.35;37.40;;;;;;;28.69;46.27;100975.44;3570206;40;20040;-64
2022/06/30 10:12:44;;;;;;;116.63;44.15;;;;;;;28.51;44.53;100977.94;3567533;40;20053;-66
2022/06/30 10:15:12;;;;;;;;;;;;;;;28.36;44.78;100969.81;3570902;40;20052;-65
2022/06/30 10:17:46;;;;;;;93.45;39.25;;;;;;;28.24;42.77;100977.84;3569152;40;19944;-65
2022/06/30 10:20:12;;;;;;;85.38;34.15;;;;;;;27.99;44.49;100973.94;3568258;40;20061;-66
2022/06/30 10:22:40;;;;;;;98.45;40.28;;;;;;;28.03;46.28;100957.78;3567507;40;20153;-66
2022/06/30 10:25:07;;;;;;;94.07;31.45;;;;;;;27.60;49.05;100958.84;3569893;40;20057;-64
2022/06/30 10:27:35;;;;;;;6.43;2.90;;;;;;;27.81;44.50;100957.03;3559354;40;20060;-66
2022/06/30 10:30:16;;;;;;;8.85;2.88;;;;;;;27.98;44.84;100956.50;3569441;40;20071;-66
2022/06/30 10:32:58;;;;;;;6.45;2.95;;;;;;;27.96;43.26;100964.13;3569932;40;20049;-65
2022/06/30 10:35:41;;;;;;;5.18;3.00;;;;;;;27.80;44.57;100958.13;3569441;40;20051;-66
2022/06/30 10:38:37;;;;;;;5.95;3.05;;;;;;;27.99;44.70;100963.72;3568587;40;20061;-65
2022/06/30 10:41:17;;;;;;;5.95;2.80;;;;;;;28.14;43.98;100963.59;3567314;40;20052;-64
2022/06/30 10:44:05;;;;;;;8.35;2.60;;;;;;;28.44;42.95;100964.09;3569889;40;20089;-64
2022/06/30 10:46:56;;;;;;;6.53;2.78;;;;;;;28.74;44.17;100955.47;3568309;40;20143;-64
2022/06/30 10:49:28;;;;;;;6.30;3.10;;;;;;;28.79;43.39;100944.59;3569219;40;20070;-65
2022/06/30 10:52:21;;;;;;;6.70;2.88;;;;;;;29.24;41.82;100961.47;3568498;40;20395;-66
2022/06/30 10:54:47;;;;;;;5.68;2.42;;;;;;;29.43;40.15;100942.22;3569509;40;20069;-66
2022/06/30 10:57:13;;;;;;;6.68;2.40;;;;;;;29.37;39.79;100955.91;3569116;40;20060;-66
2022/06/30 10:59:41;;;;;;;4.93;2.20;;;;;;;29.06;40.97;100952.94;3566427;40;20392;-66
2022/06/30 11:02:07;;;;;;;5.82;2.38;;;;;;;28.97;40.21;100959.72;3568897;40;20054;-65
2022/06/30 11:04:37;;;;;;;6.70;2.50;;;;;;;28.68;39.99;100961.84;3569126;40;20076;-67
2022/06/30 11:07:08;;;;;;;4.72;2.30;;;;;;;28.42;41.54;100963.50;3568583;40;20633;-65
2022/06/30 11:09:55;;;;;;;2.70;1.88;;;;;;;28.25;43.52;100956.59;3569142;40;20057;-65
2022/06/30 11:12:42;;;;;;;3.08;1.70;;;;;;;28.24;42.32;100960.41;3563541;40;20057;-64
2022/06/30 11:15:10;;;;;;;5.50;2.10;;;;;;;28.49;42.12;100952.44;3571362;40;20396;-64
2022/06/30 11:17:39;;;;;;;4.88;2.30;;;;;;;28.45;41.22;100957.53;3568672;40;20356;-64
2022/06/30 11:20:14;;;;;;;4.88;2.30;;;;;;;28.37;40.40;100943.00;3570825;40;20051;-64
2022/06/30 11:22:44;;;;;;;6.55;2.55;;;;;;;28.26;41.03;100919.59;3571622;40;20126;-64
2022/06/30 11:28:14;;;;;;;6.05;2.55;;;;;;;28.61;41.85;100944.38;3570242;40;20410;-64
2022/06/30 11:30:40;;;;;;;6.10;2.67;;;;;;;28.29;41.52;100897.06;3567504;40;20258;-65
2022/06/30 11:33:07;;;;;;;6.88;2.63;;;;;;;28.34;41.24;100933.22;3560845;40;20053;-64
2022/06/30 11:35:32;;;;;;;5.13;2.60;;;;;;;28.09;41.96;100929.31;3569407;40;20097;-65
2022/06/30 11:37:58;;;;;;;4.65;2.28;;;;;;;28.17;41.77;100921.69;3569387;40;20065;-64
2022/06/30 11:40:24;;;;;;;5.47;2.28;;;;;;;28.54;42.69;100926.91;3568941;40;20056;-65